sensor_id;sensor_type;location;lat;lon;timestamp;P1;durP1;ratioP1;P2;durP2;ratioP2
51612;SDS011;37694;51.748;14.326;2023-11-18T00:00:18;9.90;;;6.00;;
51612;SDS011;37694;51.748;14.326;2023-11-18T00:02:44;10.32;;;5.35;;
51612;SDS011;37694;51.748;14.326;2023-11-18T00:05:10;6.68;;;5.30;;
51612;SDS011;37694;51.748;14.326;2023-11-18T00:07:36;9.68;;;4.80;;
51612;SDS011;37694;51.748;14.326;2023-11-18T00:10:02;7.28;;;5.70;;
51612;SDS011;37694;51.748;14.326;2023-11-18T00:12:29;6.78;;;5.32;;
51612;SDS011;37694;51.748;14.326;2023-11-18T00:14:55;7.05;;;5.35;;
51612;SDS011;37694;51.748;14.326;2023-11-18T00:17:20;8.02;;;5.78;;
51612;SDS011;37694;51.748;14.326;2023-11-18T00:19:47;7.10;;;5.05;;
51612;SDS011;37694;51.748;14.326;2023-11-18T00:22:13;8.18;;;5.25;;
51612;SDS011;37694;51.748;14.326;2023-11-18T00:24:38;10.15;;;5.03;;
51612;SDS011;37694;51.748;14.326;2023-11-18T00:27:04;7.40;;;5.28;;
51612;SDS011;37694;51.748;14.326;2023-11-18T00:29:33;6.53;;;5.00;;
51612;SDS011;37694;51.748;14.326;2023-11-18T00:31:59;7.03;;;5.32;;
51612;SDS011;37694;51.748;14.326;2023-11-18T00:34:29;9.00;;;5.70;;
51612;SDS011;37694;51.748;14.326;2023-11-18T00:36:55;7.57;;;5.32;;
51612;SDS011;37694;51.748;14.326;2023-11-18T00:39:24;9.63;;;5.40;;
51612;SDS011;37694;51.748;14.326;2023-11-18T00:41:50;5.97;;;4.93;;
51612;SDS011;37694;51.748;14.326;2023-11-18T00:44:15;8.50;;;5.10;;
51612;SDS011;37694;51.748;14.326;2023-11-18T00:46:41;8.02;;;5.25;;
51612;SDS011;37694;51.748;14.326;2023-11-18T00:49:07;5.97;;;5.18;;
51612;SDS011;37694;51.748;14.326;2023-11-18T00:51:33;6.88;;;5.57;;
51612;SDS011;37694;51.748;14.326;2023-11-18T00:53:58;6.35;;;5.65;;
51612;SDS011;37694;51.748;14.326;2023-11-18T00:56:26;6.45;;;5.57;;
51612;SDS011;37694;51.748;14.326;2023-11-18T00:58:53;5.85;;;4.72;;
51612;SDS011;37694;51.748;14.326;2023-11-18T01:01:19;5.93;;;4.65;;
51612;SDS011;37694;51.748;14.326;2023-11-18T01:03:46;8.10;;;5.25;;
51612;SDS011;37694;51.748;14.326;2023-11-18T01:06:12;6.03;;;4.93;;
51612;SDS011;37694;51.748;14.326;2023-11-18T01:08:40;6.72;;;5.35;;
51612;SDS011;37694;51.748;14.326;2023-11-18T01:11:09;5.93;;;4.63;;
51612;SDS011;37694;51.748;14.326;2023-11-18T01:13:35;8.45;;;5.22;;
51612;SDS011;37694;51.748;14.326;2023-11-18T01:16:01;7.95;;;5.00;;
51612;SDS011;37694;51.748;14.326;2023-11-18T01:18:29;7.65;;;5.28;;
51612;SDS011;37694;51.748;14.326;2023-11-18T01:20:55;8.85;;;5.60;;
51612;SDS011;37694;51.748;14.326;2023-11-18T01:23:21;8.52;;;4.82;;
51612;SDS011;37694;51.748;14.326;2023-11-18T01:25:46;8.75;;;4.75;;
51612;SDS011;37694;51.748;14.326;2023-11-18T01:28:16;13.45;;;5.05;;
51612;SDS011;37694;51.748;14.326;2023-11-18T01:30:41;5.68;;;5.18;;
51612;SDS011;37694;51.748;14.326;2023-11-18T01:33:09;5.03;;;4.53;;
51612;SDS011;37694;51.748;14.326;2023-11-18T01:35:36;4.85;;;4.15;;
51612;SDS011;37694;51.748;14.326;2023-11-18T01:38:01;6.60;;;4.88;;
51612;SDS011;37694;51.748;14.326;2023-11-18T01:40:27;5.53;;;4.72;;
51612;SDS011;37694;51.748;14.326;2023-11-18T01:42:55;4.53;;;4.13;;
51612;SDS011;37694;51.748;14.326;2023-11-18T01:45:22;6.95;;;4.20;;
51612;SDS011;37694;51.748;14.326;2023-11-18T01:47:47;5.57;;;4.28;;
51612;SDS011;37694;51.748;14.326;2023-11-18T01:50:13;5.38;;;4.88;;
51612;SDS011;37694;51.748;14.326;2023-11-18T01:52:42;5.40;;;4.45;;
51612;SDS011;37694;51.748;14.326;2023-11-18T01:55:09;6.10;;;4.53;;
51612;SDS011;37694;51.748;14.326;2023-11-18T01:57:35;5.82;;;4.80;;
51612;SDS011;37694;51.748;14.326;2023-11-18T02:00:02;6.18;;;4.53;;
51612;SDS011;37694;51.748;14.326;2023-11-18T02:02:31;5.75;;;4.55;;
51612;SDS011;37694;51.748;14.326;2023-11-18T02:04:58;5.13;;;4.60;;
51612;SDS011;37694;51.748;14.326;2023-11-18T02:07:26;4.90;;;4.40;;
51612;SDS011;37694;51.748;14.326;2023-11-18T02:09:53;5.45;;;4.32;;
51612;SDS011;37694;51.748;14.326;2023-11-18T02:12:27;8.57;;;4.38;;
51612;SDS011;37694;51.748;14.326;2023-11-18T02:15:00;5.35;;;3.92;;
51612;SDS011;37694;51.748;14.326;2023-11-18T02:17:28;5.78;;;4.30;;
51612;SDS011;37694;51.748;14.326;2023-11-18T02:22:45;5.47;;;4.45;;
51612;SDS011;37694;51.748;14.326;2023-11-18T02:25:17;5.50;;;4.47;;
51612;SDS011;37694;51.748;14.326;2023-11-18T02:27:44;4.30;;;3.90;;
51612;SDS011;37694;51.748;14.326;2023-11-18T02:30:10;9.48;;;4.85;;
51612;SDS011;37694;51.748;14.326;2023-11-18T02:35:24;5.00;;;4.30;;
51612;SDS011;37694;51.748;14.326;2023-11-18T02:37:55;5.03;;;4.03;;
51612;SDS011;37694;51.748;14.326;2023-11-18T02:40:27;5.93;;;4.90;;
51612;SDS011;37694;51.748;14.326;2023-11-18T02:42:57;5.22;;;4.38;;
51612;SDS011;37694;51.748;14.326;2023-11-18T02:45:25;4.50;;;4.10;;
51612;SDS011;37694;51.748;14.326;2023-11-18T02:47:52;4.40;;;3.70;;
51612;SDS011;37694;51.748;14.326;2023-11-18T02:50:22;7.38;;;4.25;;
51612;SDS011;37694;51.748;14.326;2023-11-18T02:52:49;8.00;;;4.30;;
51612;SDS011;37694;51.748;14.326;2023-11-18T02:55:15;7.55;;;4.35;;
51612;SDS011;37694;51.748;14.326;2023-11-18T02:57:40;6.80;;;4.40;;
51612;SDS011;37694;51.748;14.326;2023-11-18T03:00:06;4.07;;;3.70;;
51612;SDS011;37694;51.748;14.326;2023-11-18T03:02:44;5.10;;;4.18;;
51612;SDS011;37694;51.748;14.326;2023-11-18T03:05:13;4.50;;;3.97;;
51612;SDS011;37694;51.748;14.326;2023-11-18T03:07:43;4.00;;;3.58;;
51612;SDS011;37694;51.748;14.326;2023-11-18T03:10:12;5.22;;;4.45;;
51612;SDS011;37694;51.748;14.326;2023-11-18T03:15:14;5.63;;;3.83;;
51612;SDS011;37694;51.748;14.326;2023-11-18T03:17:47;4.55;;;4.15;;
51612;SDS011;37694;51.748;14.326;2023-11-18T03:20:21;4.50;;;3.80;;
51612;SDS011;37694;51.748;14.326;2023-11-18T03:22:49;4.68;;;3.83;;
51612;SDS011;37694;51.748;14.326;2023-11-18T03:25:16;6.43;;;4.32;;
51612;SDS011;37694;51.748;14.326;2023-11-18T03:27:43;4.57;;;4.18;;
51612;SDS011;37694;51.748;14.326;2023-11-18T03:30:11;4.05;;;3.55;;
51612;SDS011;37694;51.748;14.326;2023-11-18T03:32:38;4.10;;;3.70;;
51612;SDS011;37694;51.748;14.326;2023-11-18T03:35:07;4.88;;;3.65;;
51612;SDS011;37694;51.748;14.326;2023-11-18T03:37:36;5.40;;;3.78;;
51612;SDS011;37694;51.748;14.326;2023-11-18T03:40:09;6.55;;;3.78;;
51612;SDS011;37694;51.748;14.326;2023-11-18T03:42:36;4.78;;;4.30;;
51612;SDS011;37694;51.748;14.326;2023-11-18T03:45:03;4.57;;;3.60;;
51612;SDS011;37694;51.748;14.326;2023-11-18T03:47:29;3.55;;;3.25;;
51612;SDS011;37694;51.748;14.326;2023-11-18T03:49:56;4.03;;;3.58;;
51612;SDS011;37694;51.748;14.326;2023-11-18T03:52:22;8.10;;;3.88;;
51612;SDS011;37694;51.748;14.326;2023-11-18T03:54:48;4.65;;;3.58;;
51612;SDS011;37694;51.748;14.326;2023-11-18T03:57:13;5.18;;;3.50;;
51612;SDS011;37694;51.748;14.326;2023-11-18T03:59:39;4.03;;;3.55;;
51612;SDS011;37694;51.748;14.326;2023-11-18T04:02:08;4.70;;;3.72;;
51612;SDS011;37694;51.748;14.326;2023-11-18T04:04:36;4.45;;;3.85;;
51612;SDS011;37694;51.748;14.326;2023-11-18T04:07:02;3.95;;;3.65;;
51612;SDS011;37694;51.748;14.326;2023-11-18T04:09:28;4.40;;;4.00;;
51612;SDS011;37694;51.748;14.326;2023-11-18T04:11:54;4.10;;;3.70;;
51612;SDS011;37694;51.748;14.326;2023-11-18T04:14:20;3.50;;;3.20;;
51612;SDS011;37694;51.748;14.326;2023-11-18T04:16:46;3.83;;;3.13;;
51612;SDS011;37694;51.748;14.326;2023-11-18T04:19:15;4.03;;;3.63;;
51612;SDS011;37694;51.748;14.326;2023-11-18T04:21:40;4.63;;;3.40;;
51612;SDS011;37694;51.748;14.326;2023-11-18T04:24:06;3.35;;;3.05;;
51612;SDS011;37694;51.748;14.326;2023-11-18T04:26:32;4.22;;;3.25;;
51612;SDS011;37694;51.748;14.326;2023-11-18T04:28:58;3.88;;;3.55;;
51612;SDS011;37694;51.748;14.326;2023-11-18T04:31:24;3.92;;;3.53;;
51612;SDS011;37694;51.748;14.326;2023-11-18T04:33:50;3.40;;;3.10;;
51612;SDS011;37694;51.748;14.326;2023-11-18T04:36:15;3.95;;;3.55;;
51612;SDS011;37694;51.748;14.326;2023-11-18T04:38:41;3.75;;;3.30;;
51612;SDS011;37694;51.748;14.326;2023-11-18T04:41:08;3.45;;;3.13;;
51612;SDS011;37694;51.748;14.326;2023-11-18T04:43:34;3.20;;;3.00;;
51612;SDS011;37694;51.748;14.326;2023-11-18T04:46:00;4.65;;;3.30;;
51612;SDS011;37694;51.748;14.326;2023-11-18T04:48:26;3.78;;;3.47;;
51612;SDS011;37694;51.748;14.326;2023-11-18T04:50:51;3.60;;;3.30;;
51612;SDS011;37694;51.748;14.326;2023-11-18T04:53:17;4.22;;;3.30;;
51612;SDS011;37694;51.748;14.326;2023-11-18T04:55:43;3.35;;;3.10;;
51612;SDS011;37694;51.748;14.326;2023-11-18T04:58:09;3.90;;;3.53;;
51612;SDS011;37694;51.748;14.326;2023-11-18T05:00:35;3.35;;;2.67;;
51612;SDS011;37694;51.748;14.326;2023-11-18T05:03:06;4.30;;;3.25;;
51612;SDS011;37694;51.748;14.326;2023-11-18T05:05:35;3.45;;;3.05;;
51612;SDS011;37694;51.748;14.326;2023-11-18T05:08:03;3.53;;;3.22;;
51612;SDS011;37694;51.748;14.326;2023-11-18T05:10:31;3.33;;;3.03;;
51612;SDS011;37694;51.748;14.326;2023-11-18T05:12:57;3.70;;;3.40;;
51612;SDS011;37694;51.748;14.326;2023-11-18T05:15:23;2.90;;;2.65;;
51612;SDS011;37694;51.748;14.326;2023-11-18T05:17:50;3.47;;;3.17;;
51612;SDS011;37694;51.748;14.326;2023-11-18T05:20:19;4.30;;;2.78;;
51612;SDS011;37694;51.748;14.326;2023-11-18T05:22:45;3.20;;;2.90;;
51612;SDS011;37694;51.748;14.326;2023-11-18T05:25:11;3.35;;;3.05;;
51612;SDS011;37694;51.748;14.326;2023-11-18T05:27:37;3.38;;;3.08;;
51612;SDS011;37694;51.748;14.326;2023-11-18T05:30:10;4.47;;;3.38;;
51612;SDS011;37694;51.748;14.326;2023-11-18T05:32:36;3.58;;;3.28;;
51612;SDS011;37694;51.748;14.326;2023-11-18T05:35:03;2.97;;;2.78;;
51612;SDS011;37694;51.748;14.326;2023-11-18T05:37:30;3.20;;;2.90;;
51612;SDS011;37694;51.748;14.326;2023-11-18T05:40:01;3.10;;;2.78;;
51612;SDS011;37694;51.748;14.326;2023-11-18T05:42:32;3.60;;;2.92;;
51612;SDS011;37694;51.748;14.326;2023-11-18T05:45:02;3.15;;;2.85;;
51612;SDS011;37694;51.748;14.326;2023-11-18T05:47:29;4.35;;;2.92;;
51612;SDS011;37694;51.748;14.326;2023-11-18T05:49:55;4.03;;;3.30;;
51612;SDS011;37694;51.748;14.326;2023-11-18T05:52:22;3.30;;;2.90;;
51612;SDS011;37694;51.748;14.326;2023-11-18T05:54:47;3.13;;;2.83;;
51612;SDS011;37694;51.748;14.326;2023-11-18T05:57:16;3.15;;;2.85;;
51612;SDS011;37694;51.748;14.326;2023-11-18T05:59:43;3.58;;;2.70;;
51612;SDS011;37694;51.748;14.326;2023-11-18T06:02:08;3.10;;;2.90;;
51612;SDS011;37694;51.748;14.326;2023-11-18T06:04:42;3.42;;;3.13;;
51612;SDS011;37694;51.748;14.326;2023-11-18T06:07:08;2.97;;;2.65;;
51612;SDS011;37694;51.748;14.326;2023-11-18T06:09:34;2.70;;;2.50;;
51612;SDS011;37694;51.748;14.326;2023-11-18T06:12:00;3.00;;;2.70;;
51612;SDS011;37694;51.748;14.326;2023-11-18T06:14:27;6.45;;;2.90;;
51612;SDS011;37694;51.748;14.326;2023-11-18T06:16:53;6.50;;;3.13;;
51612;SDS011;37694;51.748;14.326;2023-11-18T06:19:18;2.50;;;2.30;;
51612;SDS011;37694;51.748;14.326;2023-11-18T06:21:45;2.70;;;2.50;;
51612;SDS011;37694;51.748;14.326;2023-11-18T06:24:11;3.22;;;2.92;;
51612;SDS011;37694;51.748;14.326;2023-11-18T06:26:38;2.50;;;2.28;;
51612;SDS011;37694;51.748;14.326;2023-11-18T06:29:04;2.92;;;2.70;;
51612;SDS011;37694;51.748;14.326;2023-11-18T06:31:31;2.92;;;2.63;;
51612;SDS011;37694;51.748;14.326;2023-11-18T06:33:57;3.95;;;2.70;;
51612;SDS011;37694;51.748;14.326;2023-11-18T06:36:22;2.65;;;2.40;;
51612;SDS011;37694;51.748;14.326;2023-11-18T06:38:50;2.55;;;2.35;;
51612;SDS011;37694;51.748;14.326;2023-11-18T06:41:20;3.40;;;2.55;;
51612;SDS011;37694;51.748;14.326;2023-11-18T06:43:48;2.80;;;2.60;;
51612;SDS011;37694;51.748;14.326;2023-11-18T06:46:14;2.40;;;2.20;;
51612;SDS011;37694;51.748;14.326;2023-11-18T06:48:40;2.80;;;2.60;;
51612;SDS011;37694;51.748;14.326;2023-11-18T06:51:06;2.55;;;2.33;;
51612;SDS011;37694;51.748;14.326;2023-11-18T06:53:33;7.63;;;2.67;;
51612;SDS011;37694;51.748;14.326;2023-11-18T06:55:59;8.23;;;2.97;;
51612;SDS011;37694;51.748;14.326;2023-11-18T06:58:25;2.90;;;2.30;;
51612;SDS011;37694;51.748;14.326;2023-11-18T07:00:51;3.95;;;2.58;;
51612;SDS011;37694;51.748;14.326;2023-11-18T07:03:17;6.55;;;2.83;;
51612;SDS011;37694;51.748;14.326;2023-11-18T07:05:43;2.35;;;2.08;;
51612;SDS011;37694;51.748;14.326;2023-11-18T07:08:09;2.72;;;2.53;;
51612;SDS011;37694;51.748;14.326;2023-11-18T07:10:35;2.58;;;2.38;;
51612;SDS011;37694;51.748;14.326;2023-11-18T07:13:03;2.28;;;2.00;;
51612;SDS011;37694;51.748;14.326;2023-11-18T07:15:29;3.15;;;2.85;;
51612;SDS011;37694;51.748;14.326;2023-11-18T07:17:54;2.35;;;2.15;;
51612;SDS011;37694;51.748;14.326;2023-11-18T07:20:20;4.97;;;2.20;;
51612;SDS011;37694;51.748;14.326;2023-11-18T07:22:46;2.72;;;2.42;;
51612;SDS011;37694;51.748;14.326;2023-11-18T07:25:12;2.30;;;2.10;;
51612;SDS011;37694;51.748;14.326;2023-11-18T07:27:38;2.33;;;2.13;;
51612;SDS011;37694;51.748;14.326;2023-11-18T07:30:04;2.38;;;2.17;;
51612;SDS011;37694;51.748;14.326;2023-11-18T07:32:32;2.33;;;2.13;;
51612;SDS011;37694;51.748;14.326;2023-11-18T07:34:58;2.50;;;2.30;;
51612;SDS011;37694;51.748;14.326;2023-11-18T07:37:24;14.98;;;2.60;;
51612;SDS011;37694;51.748;14.326;2023-11-18T07:39:51;5.07;;;2.20;;
51612;SDS011;37694;51.748;14.326;2023-11-18T07:42:17;3.00;;;1.98;;
51612;SDS011;37694;51.748;14.326;2023-11-18T07:44:43;5.40;;;2.00;;
51612;SDS011;37694;51.748;14.326;2023-11-18T07:47:09;10.50;;;2.45;;
51612;SDS011;37694;51.748;14.326;2023-11-18T07:49:36;4.78;;;1.88;;
51612;SDS011;37694;51.748;14.326;2023-11-18T07:52:02;2.20;;;1.90;;
51612;SDS011;37694;51.748;14.326;2023-11-18T07:54:28;7.30;;;2.15;;
51612;SDS011;37694;51.748;14.326;2023-11-18T07:56:54;3.35;;;2.30;;
51612;SDS011;37694;51.748;14.326;2023-11-18T07:59:20;5.97;;;2.10;;
51612;SDS011;37694;51.748;14.326;2023-11-18T08:01:47;5.28;;;2.20;;
51612;SDS011;37694;51.748;14.326;2023-11-18T08:04:13;2.67;;;2.47;;
51612;SDS011;37694;51.748;14.326;2023-11-18T08:06:42;12.98;;;2.50;;
51612;SDS011;37694;51.748;14.326;2023-11-18T08:09:10;3.60;;;2.10;;
51612;SDS011;37694;51.748;14.326;2023-11-18T08:11:39;3.90;;;2.20;;
51612;SDS011;37694;51.748;14.326;2023-11-18T08:14:07;14.23;;;2.88;;
51612;SDS011;37694;51.748;14.326;2023-11-18T08:16:33;10.82;;;2.10;;
51612;SDS011;37694;51.748;14.326;2023-11-18T08:18:59;14.77;;;2.30;;
51612;SDS011;37694;51.748;14.326;2023-11-18T08:21:27;8.15;;;2.20;;
51612;SDS011;37694;51.748;14.326;2023-11-18T08:23:53;5.75;;;2.20;;
51612;SDS011;37694;51.748;14.326;2023-11-18T08:26:19;12.55;;;2.70;;
51612;SDS011;37694;51.748;14.326;2023-11-18T08:28:45;9.35;;;2.30;;
51612;SDS011;37694;51.748;14.326;2023-11-18T08:31:13;24.77;;;2.95;;
51612;SDS011;37694;51.748;14.326;2023-11-18T08:33:40;13.52;;;3.00;;
51612;SDS011;37694;51.748;14.326;2023-11-18T08:36:07;15.65;;;2.97;;
51612;SDS011;37694;51.748;14.326;2023-11-18T08:38:33;15.32;;;3.03;;
51612;SDS011;37694;51.748;14.326;2023-11-18T08:41:00;9.85;;;3.17;;
51612;SDS011;37694;51.748;14.326;2023-11-18T08:43:26;32.20;;;3.95;;
51612;SDS011;37694;51.748;14.326;2023-11-18T08:45:53;11.20;;;3.58;;
51612;SDS011;37694;51.748;14.326;2023-11-18T08:48:21;12.65;;;2.97;;
51612;SDS011;37694;51.748;14.326;2023-11-18T08:50:48;21.92;;;3.10;;
51612;SDS011;37694;51.748;14.326;2023-11-18T08:53:14;12.73;;;3.35;;
51612;SDS011;37694;51.748;14.326;2023-11-18T08:55:42;16.98;;;3.13;;
51612;SDS011;37694;51.748;14.326;2023-11-18T08:58:12;27.88;;;3.33;;
51612;SDS011;37694;51.748;14.326;2023-11-18T09:00:43;16.30;;;2.92;;
51612;SDS011;37694;51.748;14.326;2023-11-18T09:03:13;13.82;;;2.50;;
51612;SDS011;37694;51.748;14.326;2023-11-18T09:05:45;9.23;;;3.22;;
51612;SDS011;37694;51.748;14.326;2023-11-18T09:08:43;16.20;;;3.33;;
51612;SDS011;37694;51.748;14.326;2023-11-18T09:11:08;10.80;;;3.15;;
51612;SDS011;37694;51.748;14.326;2023-11-18T09:13:48;20.98;;;2.67;;
51612;SDS011;37694;51.748;14.326;2023-11-18T09:16:19;18.77;;;2.83;;
51612;SDS011;37694;51.748;14.326;2023-11-18T09:18:50;17.55;;;2.70;;
51612;SDS011;37694;51.748;14.326;2023-11-18T09:21:16;13.35;;;2.80;;
51612;SDS011;37694;51.748;14.326;2023-11-18T09:26:15;8.70;;;2.42;;
51612;SDS011;37694;51.748;14.326;2023-11-18T09:28:41;6.55;;;2.42;;
51612;SDS011;37694;51.748;14.326;2023-11-18T09:31:07;16.88;;;3.35;;
51612;SDS011;37694;51.748;14.326;2023-11-18T09:33:36;9.05;;;2.47;;
51612;SDS011;37694;51.748;14.326;2023-11-18T09:36:05;5.65;;;2.38;;
51612;SDS011;37694;51.748;14.326;2023-11-18T09:38:33;6.15;;;2.30;;
51612;SDS011;37694;51.748;14.326;2023-11-18T09:41:05;11.13;;;2.27;;
51612;SDS011;37694;51.748;14.326;2023-11-18T09:43:35;32.22;;;2.95;;
51612;SDS011;37694;51.748;14.326;2023-11-18T09:46:10;15.63;;;3.03;;
51612;SDS011;37694;51.748;14.326;2023-11-18T09:48:44;7.25;;;2.70;;
51612;SDS011;37694;51.748;14.326;2023-11-18T09:51:28;10.32;;;2.05;;
51612;SDS011;37694;51.748;14.326;2023-11-18T09:54:00;7.85;;;2.35;;
51612;SDS011;37694;51.748;14.326;2023-11-18T09:56:34;6.80;;;2.28;;
51612;SDS011;37694;51.748;14.326;2023-11-18T09:59:11;6.15;;;2.60;;
51612;SDS011;37694;51.748;14.326;2023-11-18T10:01:50;8.40;;;2.20;;
51612;SDS011;37694;51.748;14.326;2023-11-18T10:04:19;14.20;;;2.28;;
51612;SDS011;37694;51.748;14.326;2023-11-18T10:06:48;9.88;;;2.53;;
51612;SDS011;37694;51.748;14.326;2023-11-18T10:09:18;12.10;;;2.10;;
51612;SDS011;37694;51.748;14.326;2023-11-18T10:11:53;3.53;;;2.10;;
51612;SDS011;37694;51.748;14.326;2023-11-18T10:14:26;7.75;;;1.88;;
51612;SDS011;37694;51.748;14.326;2023-11-18T10:16:52;3.80;;;1.83;;
51612;SDS011;37694;51.748;14.326;2023-11-18T10:19:19;6.32;;;2.85;;
51612;SDS011;37694;51.748;14.326;2023-11-18T10:21:45;5.88;;;1.90;;
51612;SDS011;37694;51.748;14.326;2023-11-18T10:24:14;3.67;;;1.98;;
51612;SDS011;37694;51.748;14.326;2023-11-18T10:26:44;5.82;;;1.75;;
51612;SDS011;37694;51.748;14.326;2023-11-18T10:29:25;4.97;;;2.15;;
51612;SDS011;37694;51.748;14.326;2023-11-18T10:32:06;4.32;;;2.00;;
51612;SDS011;37694;51.748;14.326;2023-11-18T10:34:41;3.63;;;1.77;;
51612;SDS011;37694;51.748;14.326;2023-11-18T10:37:08;5.78;;;2.03;;
51612;SDS011;37694;51.748;14.326;2023-11-18T10:39:36;2.88;;;2.17;;
51612;SDS011;37694;51.748;14.326;2023-11-18T10:42:02;8.50;;;2.53;;
51612;SDS011;37694;51.748;14.326;2023-11-18T10:44:28;5.75;;;1.85;;
51612;SDS011;37694;51.748;14.326;2023-11-18T10:46:54;6.30;;;1.77;;
51612;SDS011;37694;51.748;14.326;2023-11-18T10:49:24;7.10;;;2.00;;
51612;SDS011;37694;51.748;14.326;2023-11-18T10:51:51;5.78;;;1.50;;
51612;SDS011;37694;51.748;14.326;2023-11-18T10:54:18;2.33;;;1.45;;
51612;SDS011;37694;51.748;14.326;2023-11-18T10:56:47;7.65;;;1.90;;
51612;SDS011;37694;51.748;14.326;2023-11-18T10:59:14;8.57;;;2.67;;
51612;SDS011;37694;51.748;14.326;2023-11-18T11:01:41;9.13;;;2.53;;
51612;SDS011;37694;51.748;14.326;2023-11-18T11:04:08;8.27;;;1.98;;
51612;SDS011;37694;51.748;14.326;2023-11-18T11:06:42;7.78;;;2.00;;
51612;SDS011;37694;51.748;14.326;2023-11-18T11:09:25;10.82;;;2.20;;
51612;SDS011;37694;51.748;14.326;2023-11-18T11:11:57;6.85;;;1.90;;
51612;SDS011;37694;51.748;14.326;2023-11-18T11:14:34;9.32;;;2.22;;
51612;SDS011;37694;51.748;14.326;2023-11-18T11:17:06;7.57;;;1.70;;
51612;SDS011;37694;51.748;14.326;2023-11-18T11:20:22;7.25;;;1.98;;
51612;SDS011;37694;51.748;14.326;2023-11-18T11:22:50;5.68;;;1.80;;
51612;SDS011;37694;51.748;14.326;2023-11-18T11:26:01;5.10;;;1.70;;
51612;SDS011;37694;51.748;14.326;2023-11-18T11:29:12;2.92;;;1.65;;
51612;SDS011;37694;51.748;14.326;2023-11-18T11:31:37;6.97;;;1.95;;
51612;SDS011;37694;51.748;14.326;2023-11-18T11:34:19;8.18;;;1.95;;
51612;SDS011;37694;51.748;14.326;2023-11-18T11:36:48;2.20;;;1.25;;
51612;SDS011;37694;51.748;14.326;2023-11-18T11:39:16;11.05;;;2.08;;
51612;SDS011;37694;51.748;14.326;2023-11-18T11:41:50;3.90;;;1.67;;
51612;SDS011;37694;51.748;14.326;2023-11-18T11:44:17;3.63;;;1.92;;
51612;SDS011;37694;51.748;14.326;2023-11-18T11:46:46;3.50;;;1.55;;
51612;SDS011;37694;51.748;14.326;2023-11-18T11:49:18;6.57;;;1.67;;
51612;SDS011;37694;51.748;14.326;2023-11-18T11:54:45;7.13;;;1.63;;
51612;SDS011;37694;51.748;14.326;2023-11-18T11:57:21;5.18;;;1.90;;
51612;SDS011;37694;51.748;14.326;2023-11-18T12:02:17;5.13;;;1.92;;
51612;SDS011;37694;51.748;14.326;2023-11-18T12:04:49;7.45;;;2.28;;
51612;SDS011;37694;51.748;14.326;2023-11-18T12:07:19;9.95;;;2.13;;
51612;SDS011;37694;51.748;14.326;2023-11-18T12:09:48;3.72;;;1.58;;
51612;SDS011;37694;51.748;14.326;2023-11-18T12:12:22;7.18;;;1.90;;
51612;SDS011;37694;51.748;14.326;2023-11-18T12:14:53;2.42;;;1.67;;
51612;SDS011;37694;51.748;14.326;2023-11-18T12:17:31;8.27;;;1.75;;
51612;SDS011;37694;51.748;14.326;2023-11-18T12:23:12;9.52;;;1.45;;
51612;SDS011;37694;51.748;14.326;2023-11-18T12:25:48;6.18;;;1.52;;
51612;SDS011;37694;51.748;14.326;2023-11-18T12:28:19;2.95;;;1.55;;
51612;SDS011;37694;51.748;14.326;2023-11-18T12:30:51;20.50;;;1.90;;
51612;SDS011;37694;51.748;14.326;2023-11-18T12:33:21;5.78;;;1.92;;
51612;SDS011;37694;51.748;14.326;2023-11-18T12:41:39;2.42;;;1.95;;
51612;SDS011;37694;51.748;14.326;2023-11-18T12:46:53;1.98;;;1.55;;
51612;SDS011;37694;51.748;14.326;2023-11-18T12:49:23;2.33;;;1.42;;
51612;SDS011;37694;51.748;14.326;2023-11-18T12:51:50;7.00;;;1.80;;
51612;SDS011;37694;51.748;14.326;2023-11-18T12:54:21;3.67;;;1.63;;
51612;SDS011;37694;51.748;14.326;2023-11-18T12:56:55;2.47;;;1.70;;
51612;SDS011;37694;51.748;14.326;2023-11-18T12:59:21;1.60;;;1.50;;
51612;SDS011;37694;51.748;14.326;2023-11-18T13:01:48;3.03;;;1.73;;
51612;SDS011;37694;51.748;14.326;2023-11-18T13:04:21;3.35;;;1.52;;
51612;SDS011;37694;51.748;14.326;2023-11-18T13:06:49;6.65;;;2.10;;
51612;SDS011;37694;51.748;14.326;2023-11-18T13:09:16;8.20;;;1.98;;
51612;SDS011;37694;51.748;14.326;2023-11-18T13:11:59;2.17;;;1.70;;
51612;SDS011;37694;51.748;14.326;2023-11-18T13:14:29;3.13;;;1.42;;
51612;SDS011;37694;51.748;14.326;2023-11-18T13:17:00;2.15;;;1.20;;
51612;SDS011;37694;51.748;14.326;2023-11-18T13:19:34;6.25;;;1.88;;
51612;SDS011;37694;51.748;14.326;2023-11-18T13:24:29;4.57;;;1.73;;
51612;SDS011;37694;51.748;14.326;2023-11-18T13:26:58;4.38;;;1.48;;
51612;SDS011;37694;51.748;14.326;2023-11-18T13:29:33;5.88;;;1.63;;
51612;SDS011;37694;51.748;14.326;2023-11-18T13:32:01;1.73;;;1.38;;
51612;SDS011;37694;51.748;14.326;2023-11-18T13:34:33;2.47;;;1.70;;
51612;SDS011;37694;51.748;14.326;2023-11-18T13:37:02;2.28;;;1.60;;
51612;SDS011;37694;51.748;14.326;2023-11-18T13:39:32;3.08;;;1.73;;
51612;SDS011;37694;51.748;14.326;2023-11-18T13:44:53;5.45;;;1.50;;
51612;SDS011;37694;51.748;14.326;2023-11-18T13:47:25;4.82;;;1.20;;
51612;SDS011;37694;51.748;14.326;2023-11-18T13:49:56;9.68;;;1.30;;
51612;SDS011;37694;51.748;14.326;2023-11-18T13:52:25;1.75;;;1.25;;
51612;SDS011;37694;51.748;14.326;2023-11-18T13:54:51;2.00;;;1.10;;
51612;SDS011;37694;51.748;14.326;2023-11-18T13:57:24;6.18;;;1.52;;
51612;SDS011;37694;51.748;14.326;2023-11-18T13:59:50;2.47;;;1.55;;
51612;SDS011;37694;51.748;14.326;2023-11-18T14:02:18;2.97;;;1.38;;
51612;SDS011;37694;51.748;14.326;2023-11-18T14:04:44;8.63;;;1.42;;
51612;SDS011;37694;51.748;14.326;2023-11-18T14:07:10;4.85;;;1.70;;
51612;SDS011;37694;51.748;14.326;2023-11-18T14:09:42;10.35;;;1.75;;
51612;SDS011;37694;51.748;14.326;2023-11-18T14:12:10;19.70;;;2.35;;
51612;SDS011;37694;51.748;14.326;2023-11-18T14:14:40;8.55;;;2.25;;
51612;SDS011;37694;51.748;14.326;2023-11-18T14:17:06;13.52;;;2.63;;
51612;SDS011;37694;51.748;14.326;2023-11-18T14:19:35;19.17;;;2.50;;
51612;SDS011;37694;51.748;14.326;2023-11-18T14:22:01;10.23;;;2.67;;
51612;SDS011;37694;51.748;14.326;2023-11-18T14:24:31;9.57;;;3.25;;
51612;SDS011;37694;51.748;14.326;2023-11-18T14:26:58;10.65;;;2.33;;
51612;SDS011;37694;51.748;14.326;2023-11-18T14:29:23;13.95;;;2.40;;
51612;SDS011;37694;51.748;14.326;2023-11-18T14:31:49;9.52;;;2.25;;
51612;SDS011;37694;51.748;14.326;2023-11-18T14:34:15;14.23;;;3.00;;
51612;SDS011;37694;51.748;14.326;2023-11-18T14:36:41;6.65;;;1.98;;
51612;SDS011;37694;51.748;14.326;2023-11-18T14:39:08;7.22;;;2.17;;
51612;SDS011;37694;51.748;14.326;2023-11-18T14:41:40;12.40;;;2.88;;
51612;SDS011;37694;51.748;14.326;2023-11-18T14:44:05;5.75;;;1.92;;
51612;SDS011;37694;51.748;14.326;2023-11-18T14:46:34;6.93;;;1.92;;
51612;SDS011;37694;51.748;14.326;2023-11-18T14:49:02;4.65;;;2.15;;
51612;SDS011;37694;51.748;14.326;2023-11-18T14:51:30;4.20;;;1.92;;
51612;SDS011;37694;51.748;14.326;2023-11-18T14:53:56;4.22;;;1.77;;
51612;SDS011;37694;51.748;14.326;2023-11-18T14:56:23;6.82;;;2.28;;
51612;SDS011;37694;51.748;14.326;2023-11-18T14:58:49;5.05;;;2.42;;
51612;SDS011;37694;51.748;14.326;2023-11-18T15:01:17;4.22;;;1.60;;
51612;SDS011;37694;51.748;14.326;2023-11-18T15:03:44;5.05;;;1.80;;
51612;SDS011;37694;51.748;14.326;2023-11-18T15:06:13;3.78;;;1.92;;
51612;SDS011;37694;51.748;14.326;2023-11-18T15:08:38;4.78;;;2.15;;
51612;SDS011;37694;51.748;14.326;2023-11-18T15:11:08;2.75;;;1.75;;
51612;SDS011;37694;51.748;14.326;2023-11-18T15:13:34;2.10;;;1.80;;